sensor_id;sensor_type;location;lat;lon;timestamp;P1;durP1;ratioP1;P2;durP2;ratioP2
76574;SDS011;65439;50.948;6.988;2023-05-17T00:01:10;11.63;;;3.90;;
76574;SDS011;65439;50.948;6.988;2023-05-17T00:03:35;5.90;;;3.20;;
76574;SDS011;65439;50.948;6.988;2023-05-17T00:06:00;8.07;;;2.67;;
76574;SDS011;65439;50.948;6.988;2023-05-17T00:08:26;9.93;;;5.13;;
76574;SDS011;65439;50.948;6.988;2023-05-17T00:10:51;7.43;;;2.80;;
76574;SDS011;65439;50.948;6.988;2023-05-17T00:13:16;6.67;;;3.53;;
76574;SDS011;65439;50.948;6.988;2023-05-17T00:15:42;3.75;;;2.85;;
76574;SDS011;65439;50.948;6.988;2023-05-17T00:18:07;7.90;;;3.20;;
76574;SDS011;65439;50.948;6.988;2023-05-17T00:20:32;5.40;;;3.73;;
76574;SDS011;65439;50.948;6.988;2023-05-17T00:22:58;4.88;;;3.15;;
76574;SDS011;65439;50.948;6.988;2023-05-17T00:25:24;6.72;;;2.50;;
76574;SDS011;65439;50.948;6.988;2023-05-17T00:27:50;4.82;;;2.92;;
76574;SDS011;65439;50.948;6.988;2023-05-17T00:30:15;8.57;;;3.17;;
76574;SDS011;65439;50.948;6.988;2023-05-17T00:32:40;4.67;;;3.10;;
76574;SDS011;65439;50.948;6.988;2023-05-17T00:35:06;9.90;;;3.65;;
76574;SDS011;65439;50.948;6.988;2023-05-17T00:37:31;7.15;;;3.67;;
76574;SDS011;65439;50.948;6.988;2023-05-17T00:39:56;8.70;;;3.30;;
76574;SDS011;65439;50.948;6.988;2023-05-17T00:42:22;9.17;;;5.23;;
76574;SDS011;65439;50.948;6.988;2023-05-17T00:44:47;4.37;;;3.30;;
76574;SDS011;65439;50.948;6.988;2023-05-17T00:47:12;9.43;;;3.87;;
76574;SDS011;65439;50.948;6.988;2023-05-17T00:49:38;9.87;;;3.73;;
76574;SDS011;65439;50.948;6.988;2023-05-17T00:52:03;4.50;;;3.80;;
76574;SDS011;65439;50.948;6.988;2023-05-17T00:54:29;5.63;;;3.28;;
76574;SDS011;65439;50.948;6.988;2023-05-17T00:56:55;4.80;;;3.58;;
76574;SDS011;65439;50.948;6.988;2023-05-17T00:59:21;6.20;;;3.55;;
76574;SDS011;65439;50.948;6.988;2023-05-17T01:01:47;8.07;;;3.78;;
76574;SDS011;65439;50.948;6.988;2023-05-17T01:04:13;8.75;;;4.18;;
76574;SDS011;65439;50.948;6.988;2023-05-17T01:06:38;6.13;;;3.93;;
76574;SDS011;65439;50.948;6.988;2023-05-17T01:09:04;6.75;;;3.60;;
76574;SDS011;65439;50.948;6.988;2023-05-17T01:11:38;8.20;;;3.85;;
76574;SDS011;65439;50.948;6.988;2023-05-17T01:17:16;7.13;;;3.70;;
76574;SDS011;65439;50.948;6.988;2023-05-17T01:24:48;5.63;;;3.00;;
76574;SDS011;65439;50.948;6.988;2023-05-17T01:27:17;7.07;;;3.85;;
76574;SDS011;65439;50.948;6.988;2023-05-17T01:29:43;7.63;;;3.88;;
76574;SDS011;65439;50.948;6.988;2023-05-17T01:32:09;7.55;;;3.53;;
76574;SDS011;65439;50.948;6.988;2023-05-17T01:34:35;8.50;;;4.07;;
76574;SDS011;65439;50.948;6.988;2023-05-17T01:37:00;6.70;;;3.70;;
76574;SDS011;65439;50.948;6.988;2023-05-17T01:39:25;6.55;;;3.70;;
76574;SDS011;65439;50.948;6.988;2023-05-17T01:44:47;6.10;;;3.08;;
76574;SDS011;65439;50.948;6.988;2023-05-17T01:50:24;9.02;;;3.20;;
76574;SDS011;65439;50.948;6.988;2023-05-17T01:53:08;7.05;;;3.47;;
76574;SDS011;65439;50.948;6.988;2023-05-17T01:55:39;6.60;;;3.53;;
76574;SDS011;65439;50.948;6.988;2023-05-17T01:58:07;6.95;;;3.28;;
76574;SDS011;65439;50.948;6.988;2023-05-17T02:00:34;7.47;;;3.80;;
76574;SDS011;65439;50.948;6.988;2023-05-17T02:03:00;3.90;;;3.03;;
76574;SDS011;65439;50.948;6.988;2023-05-17T02:05:25;8.67;;;4.27;;
76574;SDS011;65439;50.948;6.988;2023-05-17T02:07:50;11.70;;;3.50;;
76574;SDS011;65439;50.948;6.988;2023-05-17T02:10:16;7.93;;;4.40;;
76574;SDS011;65439;50.948;6.988;2023-05-17T02:12:41;8.47;;;4.00;;
76574;SDS011;65439;50.948;6.988;2023-05-17T02:15:07;9.50;;;4.07;;
76574;SDS011;65439;50.948;6.988;2023-05-17T02:17:35;4.65;;;3.50;;
76574;SDS011;65439;50.948;6.988;2023-05-17T02:20:00;6.20;;;4.17;;
76574;SDS011;65439;50.948;6.988;2023-05-17T02:22:25;9.27;;;4.38;;
76574;SDS011;65439;50.948;6.988;2023-05-17T02:24:51;6.97;;;3.23;;
76574;SDS011;65439;50.948;6.988;2023-05-17T02:27:16;10.37;;;4.30;;
76574;SDS011;65439;50.948;6.988;2023-05-17T02:29:41;6.13;;;3.90;;
76574;SDS011;65439;50.948;6.988;2023-05-17T02:32:07;9.57;;;3.73;;
76574;SDS011;65439;50.948;6.988;2023-05-17T02:34:32;7.67;;;5.23;;
76574;SDS011;65439;50.948;6.988;2023-05-17T02:36:57;7.80;;;5.00;;
76574;SDS011;65439;50.948;6.988;2023-05-17T02:39:22;7.20;;;4.80;;
76574;SDS011;65439;50.948;6.988;2023-05-17T02:41:48;8.17;;;4.97;;
76574;SDS011;65439;50.948;6.988;2023-05-17T02:44:13;9.10;;;5.00;;
76574;SDS011;65439;50.948;6.988;2023-05-17T02:46:38;5.40;;;3.60;;
76574;SDS011;65439;50.948;6.988;2023-05-17T02:49:04;9.00;;;5.23;;
76574;SDS011;65439;50.948;6.988;2023-05-17T02:51:29;11.05;;;5.15;;
76574;SDS011;65439;50.948;6.988;2023-05-17T02:53:55;9.95;;;5.55;;
76574;SDS011;65439;50.948;6.988;2023-05-17T02:56:20;9.13;;;5.10;;
76574;SDS011;65439;50.948;6.988;2023-05-17T02:58:45;16.38;;;6.47;;
76574;SDS011;65439;50.948;6.988;2023-05-17T03:01:11;13.20;;;7.17;;
76574;SDS011;65439;50.948;6.988;2023-05-17T03:03:36;10.88;;;5.57;;
76574;SDS011;65439;50.948;6.988;2023-05-17T03:06:01;9.67;;;6.20;;
76574;SDS011;65439;50.948;6.988;2023-05-17T03:13:19;10.23;;;5.95;;
76574;SDS011;65439;50.948;6.988;2023-05-17T03:15:44;8.53;;;5.37;;
76574;SDS011;65439;50.948;6.988;2023-05-17T03:18:09;10.20;;;6.10;;
76574;SDS011;65439;50.948;6.988;2023-05-17T03:20:35;12.50;;;7.10;;
76574;SDS011;65439;50.948;6.988;2023-05-17T03:23:00;9.07;;;5.10;;
76574;SDS011;65439;50.948;6.988;2023-05-17T03:25:25;11.30;;;6.03;;
76574;SDS011;65439;50.948;6.988;2023-05-17T03:27:51;11.63;;;6.60;;
76574;SDS011;65439;50.948;6.988;2023-05-17T03:30:16;9.47;;;7.60;;
76574;SDS011;65439;50.948;6.988;2023-05-17T03:32:41;12.03;;;5.23;;
76574;SDS011;65439;50.948;6.988;2023-05-17T03:35:07;15.83;;;6.90;;
76574;SDS011;65439;50.948;6.988;2023-05-17T03:37:32;11.52;;;6.15;;
76574;SDS011;65439;50.948;6.988;2023-05-17T03:39:58;10.63;;;6.88;;
76574;SDS011;65439;50.948;6.988;2023-05-17T03:42:23;11.17;;;6.80;;
76574;SDS011;65439;50.948;6.988;2023-05-17T03:44:48;13.93;;;6.53;;
76574;SDS011;65439;50.948;6.988;2023-05-17T03:47:14;8.97;;;6.50;;
76574;SDS011;65439;50.948;6.988;2023-05-17T03:49:39;13.00;;;7.40;;
76574;SDS011;65439;50.948;6.988;2023-05-17T03:52:05;11.77;;;7.25;;
76574;SDS011;65439;50.948;6.988;2023-05-17T03:54:31;20.27;;;8.85;;
76574;SDS011;65439;50.948;6.988;2023-05-17T03:56:56;8.63;;;6.93;;
76574;SDS011;65439;50.948;6.988;2023-05-17T03:59:21;12.80;;;6.07;;
76574;SDS011;65439;50.948;6.988;2023-05-17T04:01:47;11.13;;;6.97;;
76574;SDS011;65439;50.948;6.988;2023-05-17T04:04:12;14.65;;;6.45;;
76574;SDS011;65439;50.948;6.988;2023-05-17T04:06:37;13.13;;;6.93;;
76574;SDS011;65439;50.948;6.988;2023-05-17T04:09:03;12.25;;;7.03;;
76574;SDS011;65439;50.948;6.988;2023-05-17T04:11:28;13.32;;;6.75;;
76574;SDS011;65439;50.948;6.988;2023-05-17T04:13:53;16.40;;;8.05;;
76574;SDS011;65439;50.948;6.988;2023-05-17T04:16:19;9.80;;;6.50;;
76574;SDS011;65439;50.948;6.988;2023-05-17T04:18:44;10.57;;;6.05;;
76574;SDS011;65439;50.948;6.988;2023-05-17T04:21:10;19.33;;;7.00;;
76574;SDS011;65439;50.948;6.988;2023-05-17T04:23:36;13.15;;;8.23;;
76574;SDS011;65439;50.948;6.988;2023-05-17T04:26:02;13.93;;;6.97;;
76574;SDS011;65439;50.948;6.988;2023-05-17T04:28:28;14.90;;;7.35;;
76574;SDS011;65439;50.948;6.988;2023-05-17T04:30:54;16.85;;;7.70;;
76574;SDS011;65439;50.948;6.988;2023-05-17T04:33:20;13.60;;;6.90;;
76574;SDS011;65439;50.948;6.988;2023-05-17T04:35:45;14.70;;;7.00;;
76574;SDS011;65439;50.948;6.988;2023-05-17T04:38:11;20.15;;;7.20;;
76574;SDS011;65439;50.948;6.988;2023-05-17T04:40:36;19.50;;;8.15;;
76574;SDS011;65439;50.948;6.988;2023-05-17T04:43:01;13.68;;;7.53;;
76574;SDS011;65439;50.948;6.988;2023-05-17T04:45:27;19.70;;;9.80;;
76574;SDS011;65439;50.948;6.988;2023-05-17T04:47:52;17.73;;;8.47;;
76574;SDS011;65439;50.948;6.988;2023-05-17T04:50:18;18.77;;;9.37;;
76574;SDS011;65439;50.948;6.988;2023-05-17T04:52:44;14.07;;;8.05;;
76574;SDS011;65439;50.948;6.988;2023-05-17T04:55:10;14.57;;;8.02;;
76574;SDS011;65439;50.948;6.988;2023-05-17T04:57:35;16.23;;;9.53;;
76574;SDS011;65439;50.948;6.988;2023-05-17T05:00:01;12.17;;;7.20;;
76574;SDS011;65439;50.948;6.988;2023-05-17T05:02:30;19.17;;;7.10;;
76574;SDS011;65439;50.948;6.988;2023-05-17T05:04:56;12.73;;;7.80;;
76574;SDS011;65439;50.948;6.988;2023-05-17T05:07:21;20.43;;;7.90;;
76574;SDS011;65439;50.948;6.988;2023-05-17T05:09:47;18.90;;;9.00;;
76574;SDS011;65439;50.948;6.988;2023-05-17T05:12:12;22.08;;;8.52;;
76574;SDS011;65439;50.948;6.988;2023-05-17T05:14:37;27.17;;;9.75;;
76574;SDS011;65439;50.948;6.988;2023-05-17T05:17:03;15.60;;;8.83;;
76574;SDS011;65439;50.948;6.988;2023-05-17T05:19:28;19.80;;;8.68;;
76574;SDS011;65439;50.948;6.988;2023-05-17T05:21:54;15.90;;;8.50;;
76574;SDS011;65439;50.948;6.988;2023-05-17T05:24:19;23.90;;;9.93;;
76574;SDS011;65439;50.948;6.988;2023-05-17T05:26:44;21.60;;;9.53;;
76574;SDS011;65439;50.948;6.988;2023-05-17T05:29:10;22.50;;;10.32;;
76574;SDS011;65439;50.948;6.988;2023-05-17T05:31:35;19.83;;;9.80;;
76574;SDS011;65439;50.948;6.988;2023-05-17T05:34:01;23.38;;;9.70;;
76574;SDS011;65439;50.948;6.988;2023-05-17T05:36:27;24.77;;;10.85;;
76574;SDS011;65439;50.948;6.988;2023-05-17T05:38:52;20.97;;;11.03;;
76574;SDS011;65439;50.948;6.988;2023-05-17T05:41:18;17.77;;;9.80;;
76574;SDS011;65439;50.948;6.988;2023-05-17T05:43:44;22.65;;;10.32;;
76574;SDS011;65439;50.948;6.988;2023-05-17T05:46:09;27.20;;;9.93;;
76574;SDS011;65439;50.948;6.988;2023-05-17T05:48:34;20.37;;;11.43;;
76574;SDS011;65439;50.948;6.988;2023-05-17T05:51:03;25.63;;;13.07;;
76574;SDS011;65439;50.948;6.988;2023-05-17T05:53:28;20.60;;;11.23;;
76574;SDS011;65439;50.948;6.988;2023-05-17T05:55:54;23.05;;;11.60;;
76574;SDS011;65439;50.948;6.988;2023-05-17T05:58:19;20.73;;;11.03;;
76574;SDS011;65439;50.948;6.988;2023-05-17T06:00:44;19.07;;;10.93;;
76574;SDS011;65439;50.948;6.988;2023-05-17T06:03:10;24.63;;;11.67;;
76574;SDS011;65439;50.948;6.988;2023-05-17T06:05:35;28.17;;;12.33;;
76574;SDS011;65439;50.948;6.988;2023-05-17T06:08:00;23.43;;;9.70;;
76574;SDS011;65439;50.948;6.988;2023-05-17T06:10:25;25.00;;;11.90;;
76574;SDS011;65439;50.948;6.988;2023-05-17T06:12:51;22.33;;;12.18;;
76574;SDS011;65439;50.948;6.988;2023-05-17T06:15:16;22.33;;;11.90;;
76574;SDS011;65439;50.948;6.988;2023-05-17T06:17:41;29.17;;;13.73;;
76574;SDS011;65439;50.948;6.988;2023-05-17T06:20:07;24.20;;;12.98;;
76574;SDS011;65439;50.948;6.988;2023-05-17T06:22:33;26.33;;;12.93;;
76574;SDS011;65439;50.948;6.988;2023-05-17T06:24:58;33.97;;;14.03;;
76574;SDS011;65439;50.948;6.988;2023-05-17T06:27:24;32.53;;;14.32;;
76574;SDS011;65439;50.948;6.988;2023-05-17T06:29:50;26.15;;;15.57;;
76574;SDS011;65439;50.948;6.988;2023-05-17T06:32:15;26.00;;;13.60;;
76574;SDS011;65439;50.948;6.988;2023-05-17T06:34:40;32.53;;;14.13;;
76574;SDS011;65439;50.948;6.988;2023-05-17T06:37:06;30.60;;;13.60;;
76574;SDS011;65439;50.948;6.988;2023-05-17T06:39:31;28.17;;;14.13;;
76574;SDS011;65439;50.948;6.988;2023-05-17T06:41:56;24.80;;;12.90;;
76574;SDS011;65439;50.948;6.988;2023-05-17T06:44:22;18.67;;;11.17;;
76574;SDS011;65439;50.948;6.988;2023-05-17T06:46:47;18.57;;;11.27;;
76574;SDS011;65439;50.948;6.988;2023-05-17T06:49:12;24.27;;;11.37;;
76574;SDS011;65439;50.948;6.988;2023-05-17T06:51:37;28.77;;;11.63;;
76574;SDS011;65439;50.948;6.988;2023-05-17T06:54:03;19.33;;;10.03;;
76574;SDS011;65439;50.948;6.988;2023-05-17T06:56:28;24.20;;;10.50;;
76574;SDS011;65439;50.948;6.988;2023-05-17T06:58:54;19.48;;;10.07;;
76574;SDS011;65439;50.948;6.988;2023-05-17T07:01:19;18.60;;;10.32;;
76574;SDS011;65439;50.948;6.988;2023-05-17T07:03:44;20.10;;;8.30;;
76574;SDS011;65439;50.948;6.988;2023-05-17T07:06:10;16.13;;;7.32;;
76574;SDS011;65439;50.948;6.988;2023-05-17T07:08:35;17.30;;;8.10;;
76574;SDS011;65439;50.948;6.988;2023-05-17T07:11:00;26.42;;;8.90;;
76574;SDS011;65439;50.948;6.988;2023-05-17T07:13:26;15.05;;;6.60;;
76574;SDS011;65439;50.948;6.988;2023-05-17T07:15:52;15.30;;;5.87;;
76574;SDS011;65439;50.948;6.988;2023-05-17T07:18:17;11.32;;;6.95;;
76574;SDS011;65439;50.948;6.988;2023-05-17T07:20:42;16.70;;;8.37;;
76574;SDS011;65439;50.948;6.988;2023-05-17T07:23:08;20.47;;;7.43;;
76574;SDS011;65439;50.948;6.988;2023-05-17T07:25:33;14.17;;;7.33;;
76574;SDS011;65439;50.948;6.988;2023-05-17T07:28:02;18.63;;;6.30;;
76574;SDS011;65439;50.948;6.988;2023-05-17T07:30:28;9.20;;;4.72;;
76574;SDS011;65439;50.948;6.988;2023-05-17T07:32:53;18.80;;;7.10;;
76574;SDS011;65439;50.948;6.988;2023-05-17T07:35:18;14.00;;;7.07;;
76574;SDS011;65439;50.948;6.988;2023-05-17T07:37:44;12.43;;;6.17;;
76574;SDS011;65439;50.948;6.988;2023-05-17T07:40:10;13.65;;;6.00;;
76574;SDS011;65439;50.948;6.988;2023-05-17T07:42:35;12.13;;;7.70;;
76574;SDS011;65439;50.948;6.988;2023-05-17T07:45:01;11.77;;;5.60;;
76574;SDS011;65439;50.948;6.988;2023-05-17T07:47:26;13.07;;;6.63;;
76574;SDS011;65439;50.948;6.988;2023-05-17T07:49:51;13.10;;;3.80;;
76574;SDS011;65439;50.948;6.988;2023-05-17T07:52:16;13.73;;;5.50;;
76574;SDS011;65439;50.948;6.988;2023-05-17T07:54:42;10.73;;;4.27;;
76574;SDS011;65439;50.948;6.988;2023-05-17T07:57:07;10.98;;;4.32;;
76574;SDS011;65439;50.948;6.988;2023-05-17T07:59:32;10.63;;;3.80;;
76574;SDS011;65439;50.948;6.988;2023-05-17T08:01:58;13.32;;;4.75;;
76574;SDS011;65439;50.948;6.988;2023-05-17T08:04:23;9.57;;;2.73;;
76574;SDS011;65439;50.948;6.988;2023-05-17T08:06:48;10.87;;;3.17;;
76574;SDS011;65439;50.948;6.988;2023-05-17T08:09:14;10.18;;;2.88;;
76574;SDS011;65439;50.948;6.988;2023-05-17T08:11:40;6.07;;;2.63;;
76574;SDS011;65439;50.948;6.988;2023-05-17T08:14:10;6.97;;;2.80;;
76574;SDS011;65439;50.948;6.988;2023-05-17T08:16:36;8.23;;;2.53;;
76574;SDS011;65439;50.948;6.988;2023-05-17T08:19:01;5.43;;;2.50;;
76574;SDS011;65439;50.948;6.988;2023-05-17T08:21:27;8.20;;;3.23;;
76574;SDS011;65439;50.948;6.988;2023-05-17T08:23:52;9.40;;;2.47;;
76574;SDS011;65439;50.948;6.988;2023-05-17T08:26:17;5.67;;;3.10;;
76574;SDS011;65439;50.948;6.988;2023-05-17T08:28:43;6.75;;;3.20;;
76574;SDS011;65439;50.948;6.988;2023-05-17T08:31:08;7.67;;;2.33;;
76574;SDS011;65439;50.948;6.988;2023-05-17T08:33:33;3.15;;;1.77;;
76574;SDS011;65439;50.948;6.988;2023-05-17T08:36:00;7.38;;;2.83;;
76574;SDS011;65439;50.948;6.988;2023-05-17T08:38:26;3.92;;;2.40;;
76574;SDS011;65439;50.948;6.988;2023-05-17T08:40:55;8.03;;;2.63;;
76574;SDS011;65439;50.948;6.988;2023-05-17T08:43:20;8.48;;;2.83;;
76574;SDS011;65439;50.948;6.988;2023-05-17T08:45:46;7.72;;;2.97;;
76574;SDS011;65439;50.948;6.988;2023-05-17T08:48:13;5.43;;;1.77;;
76574;SDS011;65439;50.948;6.988;2023-05-17T08:50:39;7.03;;;2.67;;
76574;SDS011;65439;50.948;6.988;2023-05-17T08:53:05;7.30;;;3.08;;
76574;SDS011;65439;50.948;6.988;2023-05-17T08:55:31;6.85;;;2.90;;
76574;SDS011;65439;50.948;6.988;2023-05-17T08:57:57;4.72;;;2.67;;
76574;SDS011;65439;50.948;6.988;2023-05-17T09:00:22;8.70;;;3.47;;
76574;SDS011;65439;50.948;6.988;2023-05-17T09:02:48;6.55;;;3.05;;
76574;SDS011;65439;50.948;6.988;2023-05-17T09:05:14;14.73;;;2.90;;
76574;SDS011;65439;50.948;6.988;2023-05-17T09:07:40;11.63;;;3.40;;
76574;SDS011;65439;50.948;6.988;2023-05-17T09:10:06;7.57;;;2.83;;
76574;SDS011;65439;50.948;6.988;2023-05-17T09:12:32;7.63;;;3.47;;
76574;SDS011;65439;50.948;6.988;2023-05-17T09:15:19;9.00;;;3.50;;
76574;SDS011;65439;50.948;6.988;2023-05-17T09:17:51;7.18;;;3.00;;
76574;SDS011;65439;50.948;6.988;2023-05-17T09:20:24;7.97;;;3.65;;
76574;SDS011;65439;50.948;6.988;2023-05-17T09:22:58;5.18;;;2.67;;
76574;SDS011;65439;50.948;6.988;2023-05-17T09:27:53;5.82;;;2.95;;
76574;SDS011;65439;50.948;6.988;2023-05-17T09:30:25;6.22;;;2.80;;
76574;SDS011;65439;50.948;6.988;2023-05-17T09:32:51;8.35;;;2.50;;
76574;SDS011;65439;50.948;6.988;2023-05-17T09:35:17;7.53;;;3.03;;
76574;SDS011;65439;50.948;6.988;2023-05-17T09:37:43;7.65;;;2.80;;
76574;SDS011;65439;50.948;6.988;2023-05-17T09:40:20;6.68;;;2.22;;
76574;SDS011;65439;50.948;6.988;2023-05-17T09:42:46;6.90;;;3.47;;
76574;SDS011;65439;50.948;6.988;2023-05-17T09:45:11;3.75;;;1.95;;
76574;SDS011;65439;50.948;6.988;2023-05-17T09:50:03;7.17;;;2.70;;
76574;SDS011;65439;50.948;6.988;2023-05-17T09:54:58;6.43;;;2.60;;
76574;SDS011;65439;50.948;6.988;2023-05-17T09:57:25;7.38;;;2.60;;
76574;SDS011;65439;50.948;6.988;2023-05-17T09:59:52;7.47;;;2.97;;
76574;SDS011;65439;50.948;6.988;2023-05-17T10:02:21;9.85;;;2.83;;
76574;SDS011;65439;50.948;6.988;2023-05-17T10:04:47;9.15;;;2.17;;
76574;SDS011;65439;50.948;6.988;2023-05-17T10:07:15;7.70;;;2.55;;
76574;SDS011;65439;50.948;6.988;2023-05-17T10:09:43;9.82;;;3.20;;
76574;SDS011;65439;50.948;6.988;2023-05-17T10:12:11;8.20;;;3.13;;
76574;SDS011;65439;50.948;6.988;2023-05-17T10:14:39;6.53;;;2.25;;
76574;SDS011;65439;50.948;6.988;2023-05-17T10:17:06;6.90;;;2.38;;
76574;SDS011;65439;50.948;6.988;2023-05-17T10:19:33;7.72;;;1.95;;
76574;SDS011;65439;50.948;6.988;2023-05-17T10:21:58;3.70;;;1.80;;
76574;SDS011;65439;50.948;6.988;2023-05-17T10:24:24;7.68;;;2.20;;
76574;SDS011;65439;50.948;6.988;2023-05-17T10:26:50;6.80;;;2.65;;
76574;SDS011;65439;50.948;6.988;2023-05-17T10:29:16;10.10;;;2.90;;
76574;SDS011;65439;50.948;6.988;2023-05-17T10:31:44;7.82;;;2.30;;
76574;SDS011;65439;50.948;6.988;2023-05-17T10:34:10;7.72;;;2.40;;
76574;SDS011;65439;50.948;6.988;2023-05-17T10:36:36;7.60;;;2.45;;
76574;SDS011;65439;50.948;6.988;2023-05-17T10:39:02;6.03;;;2.10;;
76574;SDS011;65439;50.948;6.988;2023-05-17T10:41:32;4.75;;;2.00;;
76574;SDS011;65439;50.948;6.988;2023-05-17T10:43:58;6.20;;;2.28;;
76574;SDS011;65439;50.948;6.988;2023-05-17T10:46:27;6.03;;;2.20;;
76574;SDS011;65439;50.948;6.988;2023-05-17T10:48:55;7.65;;;2.25;;
76574;SDS011;65439;50.948;6.988;2023-05-17T10:51:23;8.07;;;2.45;;
76574;SDS011;65439;50.948;6.988;2023-05-17T10:56:49;6.80;;;2.22;;
76574;SDS011;65439;50.948;6.988;2023-05-17T10:59:16;8.13;;;2.28;;
76574;SDS011;65439;50.948;6.988;2023-05-17T11:04:34;6.43;;;2.17;;
76574;SDS011;65439;50.948;6.988;2023-05-17T11:09:41;7.22;;;2.30;;
76574;SDS011;65439;50.948;6.988;2023-05-17T11:12:08;9.48;;;2.72;;
76574;SDS011;65439;50.948;6.988;2023-05-17T11:17:12;5.25;;;2.38;;
76574;SDS011;65439;50.948;6.988;2023-05-17T11:19:47;8.60;;;2.65;;
76574;SDS011;65439;50.948;6.988;2023-05-17T11:22:38;7.38;;;3.35;;
76574;SDS011;65439;50.948;6.988;2023-05-17T11:25:08;9.48;;;2.20;;
76574;SDS011;65439;50.948;6.988;2023-05-17T11:27:47;4.53;;;1.75;;
76574;SDS011;65439;50.948;6.988;2023-05-17T11:32:56;6.18;;;2.45;;
76574;SDS011;65439;50.948;6.988;2023-05-17T11:35:25;6.95;;;2.42;;
76574;SDS011;65439;50.948;6.988;2023-05-17T11:37:52;5.35;;;1.83;;
76574;SDS011;65439;50.948;6.988;2023-05-17T11:40:24;7.30;;;2.65;;
76574;SDS011;65439;50.948;6.988;2023-05-17T11:43:13;9.48;;;3.33;;
76574;SDS011;65439;50.948;6.988;2023-05-17T11:45:55;6.25;;;2.53;;
76574;SDS011;65439;50.948;6.988;2023-05-17T11:48:22;8.55;;;2.47;;
76574;SDS011;65439;50.948;6.988;2023-05-17T11:50:49;10.82;;;3.35;;
76574;SDS011;65439;50.948;6.988;2023-05-17T11:53:16;8.25;;;3.28;;
76574;SDS011;65439;50.948;6.988;2023-05-17T11:55:45;6.85;;;2.63;;
76574;SDS011;65439;50.948;6.988;2023-05-17T11:58:12;8.05;;;3.13;;
76574;SDS011;65439;50.948;6.988;2023-05-17T12:00:38;10.60;;;2.88;;
76574;SDS011;65439;50.948;6.988;2023-05-17T12:05:44;6.13;;;2.63;;
76574;SDS011;65439;50.948;6.988;2023-05-17T12:08:10;9.82;;;2.83;;
76574;SDS011;65439;50.948;6.988;2023-05-17T12:10:35;8.65;;;2.72;;
76574;SDS011;65439;50.948;6.988;2023-05-17T12:13:01;8.20;;;2.72;;
76574;SDS011;65439;50.948;6.988;2023-05-17T12:15:26;7.10;;;3.38;;
76574;SDS011;65439;50.948;6.988;2023-05-17T12:20:18;10.77;;;3.83;;
76574;SDS011;65439;50.948;6.988;2023-05-17T12:22:50;7.22;;;2.80;;
76574;SDS011;65439;50.948;6.988;2023-05-17T12:25:20;9.85;;;2.70;;
76574;SDS011;65439;50.948;6.988;2023-05-17T12:27:49;7.63;;;2.60;;
76574;SDS011;65439;50.948;6.988;2023-05-17T12:30:18;9.27;;;4.00;;
76574;SDS011;65439;50.948;6.988;2023-05-17T12:32:43;7.53;;;3.72;;
76574;SDS011;65439;50.948;6.988;2023-05-17T12:35:09;6.88;;;2.65;;
76574;SDS011;65439;50.948;6.988;2023-05-17T12:37:35;8.10;;;2.88;;
76574;SDS011;65439;50.948;6.988;2023-05-17T12:40:01;5.68;;;3.33;;
76574;SDS011;65439;50.948;6.988;2023-05-17T12:42:29;6.70;;;2.65;;
76574;SDS011;65439;50.948;6.988;2023-05-17T12:44:55;6.07;;;2.50;;
76574;SDS011;65439;50.948;6.988;2023-05-17T12:47:20;4.13;;;2.20;;
76574;SDS011;65439;50.948;6.988;2023-05-17T12:49:54;7.50;;;3.60;;
76574;SDS011;65439;50.948;6.988;2023-05-17T12:52:20;6.68;;;2.53;;
76574;SDS011;65439;50.948;6.988;2023-05-17T12:54:45;6.77;;;2.63;;
76574;SDS011;65439;50.948;6.988;2023-05-17T12:57:11;7.03;;;2.25;;
76574;SDS011;65439;50.948;6.988;2023-05-17T12:59:48;9.98;;;2.33;;
76574;SDS011;65439;50.948;6.988;2023-05-17T13:02:14;5.50;;;2.08;;
76574;SDS011;65439;50.948;6.988;2023-05-17T13:04:40;10.70;;;3.03;;
76574;SDS011;65439;50.948;6.988;2023-05-17T13:09:32;6.40;;;3.30;;
76574;SDS011;65439;50.948;6.988;2023-05-17T13:11:59;6.57;;;2.50;;
76574;SDS011;65439;50.948;6.988;2023-05-17T13:17:03;6.43;;;2.38;;
76574;SDS011;65439;50.948;6.988;2023-05-17T13:21:54;5.03;;;2.20;;
76574;SDS011;65439;50.948;6.988;2023-05-17T13:24:20;5.05;;;2.80;;
76574;SDS011;65439;50.948;6.988;2023-05-17T13:26:45;5.10;;;2.28;;
76574;SDS011;65439;50.948;6.988;2023-05-17T13:29:10;10.63;;;2.47;;
76574;SDS011;65439;50.948;6.988;2023-05-17T13:31:36;5.50;;;2.23;;
76574;SDS011;65439;50.948;6.988;2023-05-17T13:34:01;4.73;;;1.53;;
76574;SDS011;65439;50.948;6.988;2023-05-17T13:36:26;7.67;;;3.07;;
76574;SDS011;65439;50.948;6.988;2023-05-17T13:38:52;9.23;;;3.07;;
76574;SDS011;65439;50.948;6.988;2023-05-17T13:41:17;6.60;;;1.90;;
76574;SDS011;65439;50.948;6.988;2023-05-17T13:43:42;8.05;;;2.85;;
76574;SDS011;65439;50.948;6.988;2023-05-17T13:46:08;5.95;;;3.30;;
76574;SDS011;65439;50.948;6.988;2023-05-17T13:48:33;7.65;;;2.85;;
76574;SDS011;65439;50.948;6.988;2023-05-17T13:50:58;5.60;;;2.50;;
76574;SDS011;65439;50.948;6.988;2023-05-17T13:53:24;10.10;;;2.67;;
76574;SDS011;65439;50.948;6.988;2023-05-17T13:55:49;8.57;;;2.95;;
76574;SDS011;65439;50.948;6.988;2023-05-17T13:58:15;10.98;;;3.75;;
76574;SDS011;65439;50.948;6.988;2023-05-17T14:03:08;10.90;;;3.63;;
76574;SDS011;65439;50.948;6.988;2023-05-17T14:05:34;6.05;;;3.17;;
76574;SDS011;65439;50.948;6.988;2023-05-17T14:10:25;5.15;;;2.22;;
76574;SDS011;65439;50.948;6.988;2023-05-17T14:12:51;5.10;;;3.10;;
76574;SDS011;65439;50.948;6.988;2023-05-17T14:15:16;8.70;;;2.90;;
76574;SDS011;65439;50.948;6.988;2023-05-17T14:17:41;5.93;;;2.67;;
76574;SDS011;65439;50.948;6.988;2023-05-17T14:20:07;7.07;;;3.23;;
76574;SDS011;65439;50.948;6.988;2023-05-17T14:22:33;6.45;;;2.22;;
76574;SDS011;65439;50.948;6.988;2023-05-17T14:24:58;6.00;;;2.67;;
76574;SDS011;65439;50.948;6.988;2023-05-17T14:27:24;8.60;;;2.70;;
76574;SDS011;65439;50.948;6.988;2023-05-17T14:29:49;4.83;;;2.70;;
76574;SDS011;65439;50.948;6.988;2023-05-17T14:32:14;5.82;;;2.50;;
76574;SDS011;65439;50.948;6.988;2023-05-17T14:34:40;4.90;;;2.30;;
76574;SDS011;65439;50.948;6.988;2023-05-17T14:37:05;6.13;;;2.63;;
76574;SDS011;65439;50.948;6.988;2023-05-17T14:39:31;4.80;;;2.08;;
76574;SDS011;65439;50.948;6.988;2023-05-17T14:41:56;6.85;;;2.40;;
76574;SDS011;65439;50.948;6.988;2023-05-17T14:44:22;8.43;;;2.28;;
76574;SDS011;65439;50.948;6.988;2023-05-17T14:46:47;8.33;;;2.93;;
76574;SDS011;65439;50.948;6.988;2023-05-17T14:49:12;10.50;;;3.30;;
76574;SDS011;65439;50.948;6.988;2023-05-17T14:51:38;7.18;;;2.10;;
76574;SDS011;65439;50.948;6.988;2023-05-17T14:54:03;6.63;;;2.33;;
76574;SDS011;65439;50.948;6.988;2023-05-17T14:56:29;8.43;;;2.83;;
76574;SDS011;65439;50.948;6.988;2023-05-17T14:58:56;6.80;;;2.47;;
76574;SDS011;65439;50.948;6.988;2023-05-17T15:01:21;7.15;;;2.35;;
76574;SDS011;65439;50.948;6.988;2023-05-17T15:03:47;5.97;;;2.42;;
76574;SDS011;65439;50.948;6.988;2023-05-17T15:06:12;5.10;;;2.47;;
76574;SDS011;65439;50.948;6.988;2023-05-17T15:08:37;6.63;;;2.75;;
76574;SDS011;65439;50.948;6.988;2023-05-17T15:11:03;8.07;;;2.72;;
76574;SDS011;65439;50.948;6.988;2023-05-17T15:13:28;4.07;;;2.30;;
76574;SDS011;65439;50.948;6.988;2023-05-17T15:15:54;5.83;;;2.50;;
76574;SDS011;65439;50.948;6.988;2023-05-17T15:18:19;6.47;;;2.90;;
76574;SDS011;65439;50.948;6.988;2023-05-17T15:20:44;7.32;;;2.72;;
76574;SDS011;65439;50.948;6.988;2023-05-17T15:23:10;7.72;;;3.17;;
76574;SDS011;65439;50.948;6.988;2023-05-17T15:25:36;6.75;;;2.78;;
76574;SDS011;65439;50.948;6.988;2023-05-17T15:28:01;8.75;;;3.97;;
76574;SDS011;65439;50.948;6.988;2023-05-17T15:30:26;5.17;;;2.90;;
76574;SDS011;65439;50.948;6.988;2023-05-17T15:32:52;6.82;;;2.58;;